Time;durP1;ratioP1;P1;durP2;ratioP2;P2;SDS_P1;SDS_P2;PMS_P1;PMS_P2;Temp;Humidity;BMP_temperature;BMP_pressure;BME280_temperature;BME280_humidity;BME280_pressure;Samples;Min_cycle;Max_cycle;Signal;HPM_P1;HPM_P2
2022/07/08 00:00:05;;;;;;;5.80;5.20;;;;;;;16.21;72.29;97406.67;110334;1247;60427;-74
2022/07/08 00:02:59;;;;;;;5.60;4.90;;;;;;;16.17;71.58;97408.49;110323;1247;60515;-73
2022/07/08 00:05:29;;;;;;;6.00;5.40;;;;;;;16.13;71.81;97411.19;109979;1250;71528;-75
2022/07/08 00:08:00;;;;;;;4.90;4.40;;;;;;;16.10;71.99;97413.06;110317;1247;67822;-74
2022/07/08 00:10:30;;;;;;;6.20;4.70;;;;;;;16.06;72.11;97419.59;110038;1250;68905;-75
2022/07/08 00:13:00;;;;;;;5.20;4.40;;;;;;;15.99;72.40;97423.03;110162;1247;60537;-74
2022/07/08 00:15:30;;;;;;;6.30;4.30;;;;;;;15.92;71.91;97423.52;110276;1247;60515;-74
2022/07/08 00:18:01;;;;;;;5.10;4.60;;;;;;;15.85;71.98;97426.81;110265;1247;71597;-75
2022/07/08 00:20:32;;;;;;;6.70;4.90;;;;;;;15.78;71.57;97423.42;110342;1248;68463;-72
2022/07/08 00:23:01;;;;;;;5.80;4.40;;;;;;;15.69;72.10;97423.73;109887;1247;68547;-75
2022/07/08 00:25:32;;;;;;;5.60;5.10;;;;;;;15.61;72.15;97425.39;110289;1248;60557;-74
2022/07/08 00:28:08;;;;;;;5.80;5.20;;;;;;;15.49;73.07;97419.23;110226;1247;60460;-74
2022/07/08 00:30:40;;;;;;;6.40;5.50;;;;;;;15.39;72.97;97417.94;110248;1248;71510;-73
2022/07/08 00:33:10;;;;;;;7.40;5.20;;;;;;;15.27;72.88;97414.02;110374;1247;68735;-74
2022/07/08 00:35:40;;;;;;;6.80;5.40;;;;;;;15.19;73.62;97409.17;110321;1247;69218;-74
2022/07/08 00:38:10;;;;;;;4.90;4.40;;;;;;;15.14;73.76;97408.92;110266;1247;60506;-73
2022/07/08 00:40:40;;;;;;;5.10;4.60;;;;;;;15.10;73.29;97412.81;110422;1247;60491;-73
2022/07/08 00:43:24;;;;;;;6.40;5.00;;;;;;;15.05;74.46;97412.77;110287;1247;71382;-74
2022/07/08 00:45:54;;;;;;;5.60;4.70;;;;;;;14.99;75.32;97413.60;110373;1247;68883;-75
2022/07/08 00:48:27;;;;;;;6.10;5.10;;;;;;;14.94;74.84;97411.44;110345;1247;69412;-75
2022/07/08 00:51:05;;;;;;;6.60;4.80;;;;;;;14.92;73.12;97422.70;110273;1249;60488;-73
2022/07/08 00:53:38;;;;;;;5.90;5.20;;;;;;;14.89;72.37;97421.06;110238;1248;60522;-75
2022/07/08 00:56:09;;;;;;;6.20;5.30;;;;;;;14.87;72.74;97418.94;110293;1247;71847;-75
2022/07/08 00:58:41;;;;;;;5.80;5.10;;;;;;;14.84;72.67;97415.43;110247;1250;68409;-74
2022/07/08 01:01:11;;;;;;;6.70;5.20;;;;;;;14.80;72.20;97415.07;110196;1250;68608;-73
2022/07/08 01:03:43;;;;;;;6.60;4.80;;;;;;;14.74;72.49;97413.06;109996;1250;60928;-73
2022/07/08 01:06:14;;;;;;;7.60;6.60;;;;;;;14.70;75.91;97411.54;110419;1247;60499;-75
2022/07/08 01:08:45;;;;;;;8.70;7.20;;;;;;;14.64;77.45;97410.14;110162;1250;70731;-74
2022/07/08 01:11:14;;;;;;;7.30;6.50;;;;;;;14.58;75.60;97409.59;110281;1250;67077;-75
2022/07/08 01:13:47;;;;;;;7.20;6.30;;;;;;;14.53;75.69;97411.63;110250;1248;69403;-74
2022/07/08 01:16:16;;;;;;;7.20;6.10;;;;;;;14.50;76.54;97410.34;110052;1250;60488;-76
2022/07/08 01:18:47;;;;;;;6.80;4.70;;;;;;;14.47;76.17;97411.80;110246;1248;60709;-74
2022/07/08 01:21:17;;;;;;;7.60;6.30;;;;;;;14.44;75.22;97416.92;110239;1250;72225;-74
2022/07/08 01:23:47;;;;;;;5.80;5.20;;;;;;;14.41;77.07;97418.48;110099;1250;68600;-75
2022/07/08 01:26:17;;;;;;;7.90;7.00;;;;;;;14.36;79.56;97420.66;110215;1247;68254;-75
2022/07/08 01:28:48;;;;;;;9.70;5.90;;;;;;;14.33;79.75;97422.02;110326;1248;60403;-75
2022/07/08 01:31:17;;;;;;;;;;;;;;;14.30;76.84;97425.23;110174;1250;60624;-75
2022/07/08 01:33:47;;;;;;;8.30;6.30;;;;;;;14.26;80.30;97427.80;110264;1249;72126;-76
2022/07/08 01:36:16;;;;;;;10.70;7.40;;;;;;;14.24;80.81;97427.67;110010;1251;68356;-76
2022/07/08 01:38:46;;;;;;;9.70;7.10;;;;;;;14.22;81.03;97427.13;110170;1250;69406;-74
2022/07/08 01:41:16;;;;;;;10.30;7.40;;;;;;;14.19;82.15;97428.13;109937;1250;60550;-75
2022/07/08 01:43:45;;;;;;;8.70;6.40;;;;;;;14.15;81.92;97426.19;109913;1251;60490;-74
2022/07/08 01:46:17;;;;;;;9.40;6.90;;;;;;;14.12;81.05;97427.35;109944;1249;72323;-74
2022/07/08 01:48:48;;;;;;;7.90;6.60;;;;;;;14.08;81.16;97427.54;109915;1251;67426;-75
2022/07/08 01:51:18;;;;;;;10.40;7.80;;;;;;;14.05;81.45;97427.25;110278;1248;69619;-75
2022/07/08 01:53:48;;;;;;;8.50;7.50;;;;;;;14.04;80.66;97426.79;110247;1247;60544;-74
2022/07/08 01:56:19;;;;;;;10.00;8.90;;;;;;;14.05;81.15;97426.36;110236;1250;60493;-75
2022/07/08 01:58:49;;;;;;;8.60;6.80;;;;;;;14.06;81.61;97423.97;110101;1250;72327;-73
2022/07/08 02:01:20;;;;;;;6.10;5.50;;;;;;;14.08;81.13;97426.61;110277;1248;67813;-76
2022/07/08 02:03:50;;;;;;;6.50;5.90;;;;;;;14.10;79.07;97425.36;109964;1251;68652;-74
2022/07/08 02:06:22;;;;;;;6.40;5.50;;;;;;;14.11;78.32;97425.27;110012;1250;60562;-75
2022/07/08 02:08:54;;;;;;;6.50;5.70;;;;;;;14.10;78.13;97422.41;110092;1250;60510;-74
2022/07/08 02:14:16;;;;;;;6.50;5.40;;;;;;;14.02;79.30;97424.17;110261;1250;67879;-75
2022/07/08 02:16:47;;;;;;;8.10;6.30;;;;;;;13.99;79.42;97425.61;109903;1251;69390;-74
2022/07/08 02:19:19;;;;;;;7.10;4.80;;;;;;;13.96;79.24;97422.02;110222;1248;60488;-74
2022/07/08 02:21:49;;;;;;;6.20;5.50;;;;;;;13.92;78.03;97419.08;109981;1250;60520;-74
2022/07/08 02:24:19;;;;;;;;;;;;;;;13.85;78.08;97424.21;110233;1250;72631;-74
2022/07/08 02:26:49;;;;;;;;;;;;;;;13.77;78.45;97424.33;110291;1248;67674;-73
2022/07/08 02:29:19;;;;;;;8.20;6.70;;;;;;;13.70;80.40;97427.41;110163;1248;67834;-74
2022/07/08 02:31:50;;;;;;;7.80;6.20;;;;;;;13.64;82.87;97429.85;110075;1250;60487;-74
2022/07/08 02:34:20;;;;;;;7.40;6.60;;;;;;;13.59;83.57;97428.01;109965;1251;60506;-75
2022/07/08 02:36:51;;;;;;;9.20;6.50;;;;;;;13.55;84.01;97429.23;110158;1250;71526;-74
2022/07/08 02:39:23;;;;;;;8.60;6.40;;;;;;;13.50;83.05;97428.91;110285;1248;67664;-75
2022/07/08 02:41:54;;;;;;;8.30;5.80;;;;;;;13.46;82.78;97430.52;109951;1250;69434;-75
2022/07/08 02:44:25;;;;;;;9.10;6.80;;;;;;;13.42;83.59;97430.16;110000;1251;60513;-75
2022/07/08 02:46:55;;;;;;;8.20;5.90;;;;;;;13.35;84.53;97427.27;109922;1249;60495;-73
2022/07/08 02:49:24;;;;;;;7.30;6.40;;;;;;;13.30;83.33;97427.13;110096;1247;71799;-73
2022/07/08 02:51:55;;;;;;;7.40;5.00;;;;;;;13.27;83.42;97430.73;110000;1249;68323;-73
2022/07/08 02:54:24;;;;;;;5.70;4.50;;;;;;;13.25;82.35;97430.63;110017;1249;69270;-74
2022/07/08 02:56:55;;;;;;;6.90;5.80;;;;;;;13.24;82.91;97435.63;110227;1248;60494;-73
2022/07/08 02:59:25;;;;;;;;;;;;;;;13.25;83.15;97439.60;110352;1247;60501;-74
2022/07/08 03:01:54;;;;;;;5.90;4.70;;;;;;;13.25;82.50;97442.59;110196;1247;72411;-74
2022/07/08 03:04:25;;;;;;;5.50;4.50;;;;;;;13.25;81.38;97444.66;110284;1247;68545;-75
2022/07/08 03:06:55;;;;;;;7.00;5.30;;;;;;;13.26;80.48;97447.21;110238;1247;69414;-76
2022/07/08 03:09:25;;;;;;;7.10;5.30;;;;;;;13.27;80.14;97446.29;110259;1247;60490;-76
2022/07/08 03:11:55;;;;;;;7.20;5.80;;;;;;;13.28;80.82;97449.78;110167;1247;60496;-73
2022/07/08 03:14:25;;;;;;;7.20;5.80;;;;;;;13.29;83.20;97455.39;110019;1248;71652;-74
2022/07/08 03:16:54;;;;;;;;;;;;;;;13.28;84.21;97455.98;109989;1248;68699;-74
2022/07/08 03:19:25;;;;;;;7.70;5.30;;;;;;;13.29;83.96;97460.70;110107;1251;69301;-74
2022/07/08 03:21:55;;;;;;;8.30;5.40;;;;;;;13.31;83.49;97457.83;110000;1248;60519;-74
2022/07/08 03:24:25;;;;;;;8.70;5.30;;;;;;;13.37;84.03;97460.02;110407;1247;60626;-74
2022/07/08 03:26:55;;;;;;;;;;;;;;;13.43;82.51;97464.20;110373;1247;71533;-75
2022/07/08 03:29:24;;;;;;;7.40;6.60;;;;;;;13.49;85.27;97464.77;110262;1247;67637;-75
2022/07/08 03:31:54;;;;;;;7.70;5.80;;;;;;;13.56;85.07;97464.55;110278;1246;68450;-74
2022/07/08 03:34:24;;;;;;;8.40;6.40;;;;;;;13.64;84.44;97466.95;110171;1247;60567;-74
2022/07/08 03:36:54;;;;;;;7.30;6.60;;;;;;;13.73;84.64;97468.31;110351;1247;60482;-74
2022/07/08 03:39:24;;;;;;;6.90;5.10;;;;;;;13.82;84.21;97471.23;110311;1248;71579;-76
2022/07/08 03:41:54;;;;;;;5.90;5.00;;;;;;;13.92;83.36;97470.02;110373;1247;68576;-75
2022/07/08 03:44:24;;;;;;;7.20;5.30;;;;;;;14.04;82.02;97470.41;110231;1247;69458;-75
2022/07/08 03:46:54;;;;;;;8.20;6.70;;;;;;;14.15;80.33;97466.69;110368;1247;60546;-78
2022/07/08 03:49:23;;;;;;;7.50;5.60;;;;;;;14.22;79.66;97466.21;109985;1248;60471;-75
2022/07/08 03:51:53;;;;;;;6.00;5.40;;;;;;;14.28;79.69;97463.58;110231;1247;70818;-74
2022/07/08 03:54:22;;;;;;;7.40;6.20;;;;;;;14.35;79.37;97463.86;110271;1247;68556;-72
2022/07/08 03:56:52;;;;;;;;;;;;;;;14.44;78.84;97468.48;110316;1247;69133;-72
2022/07/08 03:59:22;;;;;;;8.60;5.90;;;;;;;14.51;79.79;97464.77;110352;1247;60523;-73
2022/07/08 04:01:51;;;;;;;7.50;6.70;;;;;;;14.57;79.64;97463.35;110400;1247;60488;-73
2022/07/08 04:04:21;;;;;;;7.90;6.40;;;;;;;14.65;79.28;97467.61;110357;1247;71366;-74
2022/07/08 04:06:51;;;;;;;7.90;6.60;;;;;;;14.70;80.06;97468.20;110318;1247;68478;-74
2022/07/08 04:09:21;;;;;;;9.60;7.50;;;;;;;14.74;80.68;97467.98;110185;1247;68977;-75
2022/07/08 04:11:51;;;;;;;7.60;5.70;;;;;;;14.80;80.35;97467.11;110370;1247;60530;-73
2022/07/08 04:14:20;;;;;;;10.10;6.50;;;;;;;14.88;78.73;97460.83;110231;1246;60518;-73
2022/07/08 04:16:50;;;;;;;9.70;6.70;;;;;;;14.94;78.55;97463.55;110373;1247;72328;-73
2022/07/08 04:19:19;;;;;;;;;;;;;;;15.02;78.29;97462.67;110040;1248;68463;-74
2022/07/08 04:21:52;;;;;;;7.40;5.60;;;;;;;15.10;78.22;97465.36;110404;1247;68615;-74
2022/07/08 04:24:24;;;;;;;8.70;6.00;;;;;;;15.19;78.09;97466.02;110346;1246;60554;-72
2022/07/08 04:26:54;;;;;;;8.50;5.40;;;;;;;15.29;77.11;97465.52;110270;1248;60478;-74
2022/07/08 04:29:24;;;;;;;7.30;5.60;;;;;;;15.37;76.82;97466.54;110004;1248;72677;-74
2022/07/08 04:31:53;;;;;;;8.20;7.50;;;;;;;15.47;76.80;97467.58;110112;1247;67698;-72
2022/07/08 04:34:23;;;;;;;7.10;6.30;;;;;;;15.56;77.18;97474.09;110063;1248;69399;-72
2022/07/08 04:36:52;;;;;;;7.50;6.30;;;;;;;15.63;77.27;97474.85;110316;1247;60554;-72
2022/07/08 04:39:21;;;;;;;6.90;5.50;;;;;;;15.73;77.28;97474.67;110133;1247;60543;-73
2022/07/08 04:41:50;;;;;;;5.80;5.20;;;;;;;15.83;77.00;97475.67;110157;1248;72346;-73
2022/07/08 04:44:20;;;;;;;5.90;5.10;;;;;;;15.95;76.78;97469.98;110350;1247;68642;-73
2022/07/08 04:46:49;;;;;;;5.80;5.00;;;;;;;16.09;76.56;97474.27;110152;1247;69702;-75
2022/07/08 04:49:18;;;;;;;6.50;5.90;;;;;;;16.22;76.00;97478.33;110337;1245;60897;-73
2022/07/08 04:51:47;;;;;;;6.70;5.50;;;;;;;16.34;75.49;97481.23;110291;1247;60534;-73
2022/07/08 04:54:17;;;;;;;;;;;;;;;16.50;73.24;97486.09;110163;1248;72320;-74
2022/07/08 04:56:47;;;;;;;5.60;4.50;;;;;;;16.66;71.79;97484.31;110437;1247;68532;-69
2022/07/08 04:59:16;;;;;;;4.70;4.30;;;;;;;16.83;72.30;97489.52;110251;1247;69241;-70
2022/07/08 05:01:46;;;;;;;5.20;4.70;;;;;;;16.98;71.12;97485.26;110117;1248;60534;-70
2022/07/08 05:04:16;;;;;;;5.00;4.10;;;;;;;17.14;69.92;97483.86;110233;1247;60874;-71
2022/07/08 05:06:45;;;;;;;4.90;3.90;;;;;;;17.31;70.48;97482.77;110109;1247;72154;-70
2022/07/08 05:09:15;;;;;;;4.90;4.40;;;;;;;17.45;67.12;97480.44;110285;1246;68627;-70
2022/07/08 05:11:45;;;;;;;4.80;4.10;;;;;;;17.68;68.42;97479.23;110303;1247;68633;-69
2022/07/08 05:14:14;;;;;;;4.70;3.80;;;;;;;18.02;68.86;97474.95;110086;1248;60528;-71
2022/07/08 05:16:44;;;;;;;4.10;3.70;;;;;;;18.46;68.96;97477.31;110119;1247;60499;-70
2022/07/08 05:19:13;;;;;;;4.40;3.60;;;;;;;18.97;68.85;97473.33;110231;1247;71560;-68
2022/07/08 05:21:42;;;;;;;4.70;3.10;;;;;;;19.45;66.31;97469.24;110300;1247;68655;-68
2022/07/08 05:24:12;;;;;;;3.80;3.40;;;;;;;19.98;65.39;97471.80;110250;1246;69286;-69
2022/07/08 05:26:44;;;;;;;4.70;3.20;;;;;;;20.43;59.91;97471.81;110221;1247;60532;-70
2022/07/08 05:29:13;;;;;;;3.50;2.60;;;;;;;20.79;60.58;97469.59;110239;1247;60505;-69
2022/07/08 05:31:42;;;;;;;2.90;2.70;;;;;;;20.95;57.42;97467.25;109903;1248;72336;-70
2022/07/08 05:34:12;;;;;;;4.90;3.40;;;;;;;21.13;56.80;97471.95;110251;1247;67200;-70
2022/07/08 05:36:42;;;;;;;3.30;2.80;;;;;;;21.09;54.78;97470.66;110163;1247;69445;-70
2022/07/08 05:39:11;;;;;;;;;;;;;;;21.01;55.03;97472.75;110329;1247;60624;-69
2022/07/08 05:41:41;;;;;;;;;;;;;;;20.90;54.26;97469.61;110267;1247;60446;-69
2022/07/08 05:44:10;;;;;;;3.60;2.80;;;;;;;20.90;55.63;97470.56;110225;1247;71374;-68
2022/07/08 05:46:39;;;;;;;3.10;2.80;;;;;;;20.91;55.41;97468.77;110276;1247;67171;-68
2022/07/08 05:49:08;;;;;;;3.20;2.90;;;;;;;20.96;54.42;97463.69;110275;1247;68674;-71
2022/07/08 05:51:37;;;;;;;3.60;2.90;;;;;;;20.98;55.00;97463.98;110252;1247;60507;-69
2022/07/08 05:54:06;;;;;;;3.90;2.80;;;;;;;20.97;54.03;97466.87;110195;1247;60504;-70
2022/07/08 05:56:35;;;;;;;4.60;2.50;;;;;;;21.05;53.81;97466.73;110280;1247;72395;-72
2022/07/08 05:59:04;;;;;;;3.30;2.50;;;;;;;21.12;53.73;97465.19;110271;1246;68724;-69
2022/07/08 06:01:33;;;;;;;2.60;2.40;;;;;;;21.17;53.73;97464.91;110258;1247;69418;-72
2022/07/08 06:04:03;;;;;;;3.20;2.80;;;;;;;21.24;52.46;97465.36;110136;1247;60483;-68
2022/07/08 06:06:32;;;;;;;4.50;3.00;;;;;;;21.11;53.70;97462.83;110224;1247;60489;-69
2022/07/08 06:09:01;;;;;;;4.20;3.50;;;;;;;21.03;53.16;97461.55;110198;1247;72392;-69
2022/07/08 06:11:30;;;;;;;6.50;3.40;;;;;;;20.93;53.29;97462.25;110279;1247;68414;-69
2022/07/08 06:13:59;;;;;;;4.40;2.90;;;;;;;20.91;53.45;97462.45;110278;1245;69526;-67
2022/07/08 06:16:29;;;;;;;3.40;2.90;;;;;;;21.00;53.21;97463.56;110326;1247;60525;-68
2022/07/08 06:19:00;;;;;;;5.30;3.00;;;;;;;21.18;52.68;97465.17;110193;1247;60557;-70
2022/07/08 06:21:29;;;;;;;4.20;2.90;;;;;;;21.25;51.27;97466.45;109972;1246;72853;-71
2022/07/08 06:23:58;;;;;;;4.00;2.30;;;;;;;21.46;51.86;97464.61;110244;1246;67960;-68
2022/07/08 06:26:27;;;;;;;2.90;2.40;;;;;;;21.84;49.96;97465.33;109917;1248;68683;-69
2022/07/08 06:28:56;;;;;;;4.60;2.60;;;;;;;22.20;48.45;97466.65;110184;1247;60549;-70
2022/07/08 06:31:25;;;;;;;3.70;2.70;;;;;;;22.60;47.67;97468.79;110304;1246;60506;-69
2022/07/08 06:33:58;;;;;;;3.60;2.60;;;;;;;22.99;46.93;97464.59;110175;1247;72329;-69
2022/07/08 06:36:28;;;;;;;3.70;2.40;;;;;;;23.42;46.05;97464.38;110314;1246;67981;-70
2022/07/08 06:38:56;;;;;;;3.10;2.70;;;;;;;23.75;44.36;97459.01;110195;1247;68713;-68
2022/07/08 06:41:31;;;;;;;3.90;2.40;;;;;;;23.72;43.46;97460.37;110189;1247;60557;-69
2022/07/08 06:44:00;;;;;;;3.00;2.20;;;;;;;23.80;43.49;97460.90;110313;1245;60478;-72
2022/07/08 06:46:30;;;;;;;3.40;2.70;;;;;;;24.08;43.25;97468.17;110241;1247;72370;-70
2022/07/08 06:48:59;;;;;;;;;;;;;;;23.97;42.48;97467.50;110213;1247;67830;-70
2022/07/08 06:51:28;;;;;;;;;;;;;;;24.20;41.49;97466.80;110109;1247;69459;-71
2022/07/08 06:56:45;;;;;;;3.70;2.20;;;;;;;24.75;40.64;97465.28;110271;1247;60858;-69
2022/07/08 06:59:14;;;;;;;2.20;2.00;;;;;;;24.98;40.74;97466.89;110287;1245;72346;-71
2022/07/08 07:01:43;;;;;;;2.50;2.20;;;;;;;25.34;39.64;97468.92;110185;1247;67822;-69
2022/07/08 07:04:12;;;;;;;2.10;1.90;;;;;;;25.72;39.99;97469.41;110332;1247;69419;-72
2022/07/08 07:06:41;;;;;;;;;;;;;;;26.13;39.78;97471.70;110185;1247;60444;-69
2022/07/08 07:09:10;;;;;;;2.40;2.20;;;;;;;26.43;38.38;97474.21;110195;1247;60576;-69
2022/07/08 07:11:39;;;;;;;3.60;2.60;;;;;;;26.52;37.05;97472.52;110380;1247;71541;-69
2022/07/08 07:14:09;;;;;;;2.80;2.40;;;;;;;26.53;37.01;97474.65;110142;1247;66824;-70
2022/07/08 07:16:38;;;;;;;;;;;;;;;26.43;37.06;97476.80;110216;1247;68855;-68
2022/07/08 07:19:07;;;;;;;3.70;2.30;;;;;;;26.24;37.34;97475.20;110265;1246;60495;-69
2022/07/08 07:21:36;;;;;;;3.50;2.00;;;;;;;26.48;37.27;97481.84;110246;1247;60843;-69
2022/07/08 07:24:06;;;;;;;2.70;2.10;;;;;;;26.80;36.91;97480.56;110190;1247;71614;-69
2022/07/08 07:26:36;;;;;;;3.10;2.00;;;;;;;27.08;36.26;97480.46;110024;1247;67834;-69
2022/07/08 07:29:06;;;;;;;2.00;1.80;;;;;;;27.28;35.42;97480.73;109599;1247;578638;-70
2022/07/08 07:31:36;;;;;;;3.30;2.10;;;;;;;27.46;35.58;97479.69;110247;1247;60495;-71
2022/07/08 07:34:07;;;;;;;2.40;1.90;;;;;;;27.70;34.59;97478.29;110221;1247;60512;-70
2022/07/08 07:36:37;;;;;;;2.20;1.90;;;;;;;27.80;33.94;97479.71;110195;1247;72326;-71
2022/07/08 07:39:09;;;;;;;2.50;2.10;;;;;;;27.91;34.12;97476.90;110144;1247;68773;-69
2022/07/08 07:41:38;;;;;;;2.20;2.00;;;;;;;28.01;34.21;97475.41;110168;1248;69427;-69
2022/07/08 07:44:08;;;;;;;2.10;1.70;;;;;;;28.19;34.09;97474.44;110170;1247;60548;-69
2022/07/08 07:46:38;;;;;;;2.70;2.30;;;;;;;28.27;33.04;97474.73;110248;1247;60448;-69
2022/07/08 07:49:07;;;;;;;2.50;2.10;;;;;;;27.65;33.10;97480.79;110232;1246;72332;-69
2022/07/08 07:51:36;;;;;;;;;;;;;;;27.52;34.27;97477.41;110289;1247;68651;-68
2022/07/08 07:54:05;;;;;;;3.20;2.10;;;;;;;27.95;33.32;97477.39;110278;1246;69243;-70
2022/07/08 07:56:35;;;;;;;1.70;1.60;;;;;;;28.04;33.66;97474.88;110236;1247;60993;-70
2022/07/08 07:59:03;;;;;;;;;;;;;;;28.52;33.81;97475.23;110242;1247;60488;-69
2022/07/08 08:01:33;;;;;;;1.90;1.70;;;;;;;28.69;32.38;97471.73;110375;1246;72595;-73
2022/07/08 08:04:03;;;;;;;1.80;1.50;;;;;;;28.91;32.33;97472.26;110220;1247;68636;-72
2022/07/08 08:06:32;;;;;;;2.00;1.80;;;;;;;29.40;32.42;97476.48;110162;1246;68510;-70
2022/07/08 08:09:01;;;;;;;;;;;;;;;29.73;32.51;97475.61;110216;1247;60539;-71
2022/07/08 08:11:31;;;;;;;2.60;1.90;;;;;;;29.89;31.87;97474.65;110282;1245;60487;-68
2022/07/08 08:14:01;;;;;;;2.90;2.10;;;;;;;30.11;32.00;97471.14;110199;1246;72403;-70
2022/07/08 08:16:30;;;;;;;2.40;1.90;;;;;;;30.28;30.73;97469.75;110195;1247;68672;-70
2022/07/08 08:18:59;;;;;;;;;;;;;;;29.86;30.57;97470.73;109954;1247;69542;-69
2022/07/08 08:21:29;;;;;;;;;;;;;;;29.89;30.80;97467.81;110106;1247;60484;-69
2022/07/08 08:23:59;;;;;;;2.20;2.00;;;;;;;30.31;31.15;97468.15;110231;1247;61001;-71
2022/07/08 08:26:33;;;;;;;2.90;2.00;;;;;;;29.82;30.01;97464.20;110237;1247;72382;-71
2022/07/08 08:29:02;;;;;;;;;;;;;;;29.92;31.73;97464.12;110250;1247;68622;-70
2022/07/08 08:31:31;;;;;;;2.40;2.20;;;;;;;30.26;31.23;97465.92;110082;1247;68718;-69
2022/07/08 08:34:01;;;;;;;2.70;2.10;;;;;;;30.10;30.17;97460.94;110176;1247;60564;-70
2022/07/08 08:36:30;;;;;;;2.40;1.80;;;;;;;30.17;30.65;97457.55;110179;1246;60485;-71
2022/07/08 08:38:59;;;;;;;2.70;2.30;;;;;;;30.15;30.29;97458.28;110196;1247;72358;-71
2022/07/08 08:41:29;;;;;;;2.70;2.40;;;;;;;30.03;30.75;97452.55;110273;1246;68574;-70
2022/07/08 08:43:58;;;;;;;3.00;2.40;;;;;;;30.21;30.49;97452.79;110145;1247;68769;-70
2022/07/08 08:46:31;;;;;;;2.70;2.40;;;;;;;30.15;30.25;97452.64;110228;1247;60551;-70
2022/07/08 08:49:02;;;;;;;3.40;2.60;;;;;;;29.91;30.50;97444.63;110239;1247;60523;-70
2022/07/08 08:51:32;;;;;;;4.00;2.50;;;;;;;29.85;30.92;97443.20;110310;1246;72442;-68
2022/07/08 08:54:04;;;;;;;2.40;2.20;;;;;;;29.82;30.81;97439.15;110043;1250;67830;-70
2022/07/08 08:56:34;;;;;;;3.50;2.40;;;;;;;29.88;30.78;97439.13;110173;1247;69197;-70
2022/07/08 08:59:05;;;;;;;3.00;2.20;;;;;;;29.81;30.98;97439.60;110222;1247;60495;-71
2022/07/08 09:01:34;;;;;;;2.40;2.20;;;;;;;29.39;30.92;97434.77;110198;1247;60500;-70
2022/07/08 09:04:10;;;;;;;2.40;2.20;;;;;;;29.34;31.13;97435.58;110212;1247;72352;-70
2022/07/08 09:06:40;;;;;;;2.90;2.30;;;;;;;30.08;31.60;97437.31;110092;1248;67861;-70
2022/07/08 09:09:09;;;;;;;3.70;2.20;;;;;;;30.59;30.04;97437.40;110287;1246;67696;-70
2022/07/08 09:11:39;;;;;;;2.80;2.60;;;;;;;30.40;31.24;97431.39;110165;1247;60915;-70
2022/07/08 09:14:22;;;;;;;3.30;2.40;;;;;;;30.39;31.96;97428.36;110260;1247;60537;-70
2022/07/08 09:17:17;;;;;;;2.30;2.10;;;;;;;30.81;30.95;97428.59;110157;1247;72448;-71
2022/07/08 09:19:50;;;;;;;2.60;2.10;;;;;;;31.14;30.02;97429.66;110152;1247;67995;-71
2022/07/08 09:22:25;;;;;;;3.70;2.60;;;;;;;31.27;29.66;97429.84;110214;1247;69489;-71
2022/07/08 09:24:57;;;;;;;2.50;2.30;;;;;;;31.62;29.89;97424.48;110315;1247;60483;-70
2022/07/08 09:27:28;;;;;;;2.60;2.00;;;;;;;31.66;31.07;97424.17;110044;1247;60454;-69
2022/07/08 09:30:04;;;;;;;2.40;2.20;;;;;;;31.77;29.14;97413.77;110092;1247;72194;-71
2022/07/08 09:32:33;;;;;;;2.60;2.40;;;;;;;31.65;28.88;97414.71;110306;1247;68705;-69
2022/07/08 09:35:11;;;;;;;3.50;2.60;;;;;;;31.19;29.06;97416.08;110109;1246;69445;-70
2022/07/08 09:37:40;;;;;;;2.90;2.50;;;;;;;30.40;29.47;97412.20;110143;1247;60561;-69
2022/07/08 09:40:18;;;;;;;2.70;2.40;;;;;;;29.80;30.25;97408.22;110238;1246;60550;-69
2022/07/08 09:42:52;;;;;;;2.40;2.20;;;;;;;29.92;31.75;97406.18;110242;1246;72388;-70
2022/07/08 09:45:49;;;;;;;2.20;2.00;;;;;;;30.37;30.15;97409.46;110205;1247;68745;-72
2022/07/08 09:48:19;;;;;;;2.50;2.10;;;;;;;31.02;29.14;97402.39;110217;1246;68761;-70
2022/07/08 09:50:49;;;;;;;2.00;1.80;;;;;;;31.36;27.72;97397.06;110212;1247;60491;-70
2022/07/08 09:53:35;;;;;;;2.50;2.00;;;;;;;31.86;28.15;97393.10;110159;1247;60596;-70
2022/07/08 09:56:04;;;;;;;4.40;2.30;;;;;;;32.13;27.52;97391.00;110198;1246;71717;-71
2022/07/08 09:58:35;;;;;;;2.40;2.20;;;;;;;31.88;27.63;97393.24;110024;1246;68124;-72
2022/07/08 10:01:04;;;;;;;2.00;1.70;;;;;;;31.13;27.81;97397.16;110330;1246;69469;-71
2022/07/08 10:03:35;;;;;;;5.80;2.60;;;;;;;30.99;27.96;97398.82;110176;1246;60481;-71
2022/07/08 10:06:05;;;;;;;2.40;2.20;;;;;;;30.71;26.77;97393.56;110259;1247;60505;-71
2022/07/08 10:08:35;;;;;;;2.50;2.20;;;;;;;30.83;27.36;97390.92;110273;1247;72388;-68
2022/07/08 10:11:08;;;;;;;2.70;2.20;;;;;;;31.42;28.13;97384.04;110275;1247;68678;-70
2022/07/08 10:13:39;;;;;;;2.50;2.20;;;;;;;31.22;28.62;97381.95;110137;1246;68764;-69
2022/07/08 10:16:11;;;;;;;4.70;2.40;;;;;;;31.86;27.84;97378.83;110067;1247;60494;-70
2022/07/08 10:18:44;;;;;;;2.60;2.40;;;;;;;31.85;27.14;97378.17;110125;1247;60527;-69
2022/07/08 10:21:18;;;;;;;1.80;1.70;;;;;;;31.73;26.53;97367.17;110080;1247;71634;-70
2022/07/08 10:23:52;;;;;;;2.60;2.40;;;;;;;31.81;25.65;97370.38;110204;1247;68577;-69
2022/07/08 10:26:31;;;;;;;2.50;2.20;;;;;;;31.27;24.26;97368.65;110192;1247;69435;-70
2022/07/08 10:29:03;;;;;;;2.40;2.00;;;;;;;30.82;25.14;97370.27;110117;1247;60544;-69
2022/07/08 10:31:47;;;;;;;2.10;1.90;;;;;;;31.33;25.39;97362.86;110355;1246;60480;-71
2022/07/08 10:34:21;;;;;;;2.20;1.70;;;;;;;31.64;24.28;97364.75;110276;1247;72407;-70
2022/07/08 10:36:53;;;;;;;3.00;1.90;;;;;;;31.81;25.23;97363.52;110273;1247;67303;-72
2022/07/08 10:39:27;;;;;;;2.30;1.80;;;;;;;31.85;25.53;97364.02;110212;1247;68495;-70
2022/07/08 10:42:10;;;;;;;2.50;2.00;;;;;;;31.86;25.24;97359.81;110258;1247;60576;-70
2022/07/08 10:44:45;;;;;;;2.20;2.00;;;;;;;31.88;23.93;97367.84;110221;1247;60512;-71
2022/07/08 10:47:23;;;;;;;1.80;1.70;;;;;;;31.54;22.70;97364.83;110187;1247;71440;-70
2022/07/08 10:50:07;;;;;;;2.70;2.50;;;;;;;31.72;23.34;97365.04;110209;1247;66822;-71
2022/07/08 10:52:42;;;;;;;2.70;1.70;;;;;;;31.87;24.50;97360.92;110280;1247;69402;-71
2022/07/08 10:55:14;;;;;;;2.70;2.00;;;;;;;32.07;23.54;97359.40;110345;1247;60453;-71
2022/07/08 10:57:54;;;;;;;2.50;2.30;;;;;;;32.26;26.91;97350.07;110285;1247;60474;-70
2022/07/08 11:00:24;;;;;;;2.30;1.80;;;;;;;32.27;27.25;97350.36;110321;1247;72573;-71
2022/07/08 11:02:53;;;;;;;2.20;2.00;;;;;;;31.88;27.23;97349.80;110244;1246;68837;-72
2022/07/08 11:05:42;;;;;;;2.30;2.10;;;;;;;31.51;27.48;97356.02;110202;1246;69425;-71
2022/07/08 11:08:20;;;;;;;2.40;2.10;;;;;;;30.84;27.63;97352.21;110264;1247;60857;-70
2022/07/08 11:10:51;;;;;;;2.40;2.00;;;;;;;30.52;27.21;97350.92;110199;1247;60448;-70
2022/07/08 11:13:22;;;;;;;2.50;1.80;;;;;;;30.71;27.47;97347.73;110316;1246;72363;-71
2022/07/08 11:15:51;;;;;;;2.90;2.20;;;;;;;30.90;27.11;97346.63;110313;1246;66636;-69
2022/07/08 11:18:22;;;;;;;2.10;1.80;;;;;;;30.81;25.39;97348.23;109974;1247;68617;-71
2022/07/08 11:21:01;;;;;;;1.50;1.40;;;;;;;31.17;26.14;97345.58;110293;1246;60465;-70
2022/07/08 11:23:31;;;;;;;2.30;1.80;;;;;;;31.63;24.86;97339.63;109944;1247;60507;-70
2022/07/08 11:26:02;;;;;;;3.20;2.00;;;;;;;31.85;23.72;97339.05;110147;1247;72379;-69
2022/07/08 11:28:34;;;;;;;2.30;1.90;;;;;;;31.84;24.11;97336.06;110208;1247;68894;-70
2022/07/08 11:31:04;;;;;;;2.00;1.70;;;;;;;31.61;25.28;97334.67;110322;1246;69548;-70
2022/07/08 11:33:42;;;;;;;1.80;1.70;;;;;;;31.23;24.18;97336.48;110231;1247;60506;-70
2022/07/08 11:36:17;;;;;;;1.80;1.70;;;;;;;31.06;23.69;97329.08;110138;1247;60489;-70
2022/07/08 11:38:49;;;;;;;2.10;1.90;;;;;;;30.78;23.49;97331.45;110173;1247;72289;-71
2022/07/08 11:41:20;;;;;;;1.80;1.70;;;;;;;30.43;24.61;97329.33;110336;1245;68595;-70
2022/07/08 11:43:50;;;;;;;2.20;1.90;;;;;;;30.50;25.61;97329.94;110050;1248;68666;-71
2022/07/08 11:46:22;;;;;;;1.70;1.60;;;;;;;30.87;24.54;97319.21;110223;1247;60541;-72
2022/07/08 11:48:53;;;;;;;2.70;2.00;;;;;;;31.22;23.60;97316.51;110206;1247;60539;-69
2022/07/08 11:51:22;;;;;;;2.00;1.70;;;;;;;31.57;24.34;97318.14;110199;1247;73015;-71